Gifu, Japan
Current Conditions -  °F | °C
As of 9:30 AM on Thursday 23 Oct 2014 (Local Time) from RJGG Reporting Station
Rain Showers Rain Showers  
Wind Chill: 64°   Ceiling: 4000
Heat Index: 64°   Visibility: 6mi
Dew Point: 54°   Wind: 12mph
Humidity: 68%   Direction: 340°NNW
Pressure: 30"   Gusts: NA
Location:  35.42°N, 136.76°E
Report Text: RJGG 230030Z 34010KT 9999 VCSH FEW015 BKN040 18/12 Q1016 NOSIG
Loading
Personal Weather Stations






























Interactive Weather Map
Tropical Storm Tracking
New forecast layout! Learn more

10-Day Weather Forecast

Advertisements
Track Severe Weather on mobile